Breckenridge, Michigan
Current Conditions -  °F | °C
As of 4:35 PM on Friday 19 Dec 2014 (Local Time) from KAMN Reporting Station
Clear Clear  
Wind Chill: 29°   Ceiling: Unl
Heat Index: 29°   Visibility: 10mi
Dew Point: 20°   Wind: 0mph
Humidity: 68%   Direction: NA
Pressure: 30.27"   Gusts: NA
Location:  43.41°N, 84.48°W
Report Text: KAMN 192135Z AUTO 00000KT 10SM CLR M02/M07 A3027 RMK AO2 T10161068
Loading
Personal Weather Stations






























Interactive Weather Map New forecast layout! Learn more

10-Day Weather Forecast

Advertisements
Track Severe Weather on mobile